createdAt,value
2019-05-30T00:00:29.922Z,13.89
2019-05-30T00:03:02.330Z,13.85
2019-05-30T00:05:33.174Z,13.89
2019-05-30T00:08:04.410Z,13.86
2019-05-30T00:10:35.178Z,13.75
2019-05-30T00:13:05.891Z,13.71
2019-05-30T00:15:38.574Z,13.70
2019-05-30T00:18:09.254Z,13.79
2019-05-30T00:20:39.856Z,13.81
2019-05-30T00:23:13.365Z,13.70
2019-05-30T00:25:44.111Z,13.72
2019-05-30T00:28:15.815Z,13.74
2019-05-30T00:30:47.576Z,13.79
2019-05-30T00:33:19.294Z,13.66
2019-05-30T00:35:59.846Z,13.71
2019-05-30T00:38:36.053Z,13.64
2019-05-30T00:41:06.709Z,13.66
2019-05-30T00:43:37.386Z,13.72
2019-05-30T00:46:09.077Z,13.61
2019-05-30T00:48:39.764Z,13.68
2019-05-30T00:51:10.442Z,13.56
2019-05-30T00:53:41.042Z,13.59
2019-05-30T00:56:12.831Z,13.72
2019-05-30T00:58:43.435Z,13.72
2019-05-30T01:01:14.117Z,13.53
2019-05-30T01:03:44.762Z,13.59
2019-05-30T01:06:16.481Z,13.42
2019-05-30T01:08:47.235Z,13.45
2019-05-30T01:11:18.042Z,13.45
2019-05-30T01:13:48.801Z,13.49
2019-05-30T01:16:19.501Z,13.49
2019-05-30T01:18:50.158Z,13.55
2019-05-30T01:21:20.852Z,13.55
2019-05-30T01:23:51.442Z,13.36
2019-05-30T01:26:22.049Z,13.44
2019-05-30T01:28:52.814Z,13.41
2019-05-30T01:31:23.613Z,13.45
2019-05-30T01:33:54.363Z,13.53
2019-05-30T01:36:25.132Z,13.43
2019-05-30T01:38:55.965Z,13.37
2019-05-30T01:41:26.879Z,13.41
2019-05-30T01:43:57.782Z,13.43
2019-05-30T01:46:28.527Z,13.48
2019-05-30T01:49:00.229Z,13.51
2019-05-30T01:51:31.123Z,13.30
2019-05-30T01:54:02.572Z,13.26
2019-05-30T01:56:33.396Z,13.27
2019-05-30T01:59:04.779Z,13.33
2019-05-30T02:01:35.823Z,13.34
2019-05-30T02:04:07.340Z,13.37
2019-05-30T02:06:38.372Z,13.38
2019-05-30T02:09:10.255Z,13.31
2019-05-30T02:11:41.531Z,13.36
2019-05-30T02:14:12.260Z,13.36
2019-05-30T02:16:43.093Z,13.45
2019-05-30T02:19:13.843Z,13.30
2019-05-30T02:21:44.645Z,13.36
2019-05-30T02:24:15.577Z,13.36
2019-05-30T02:26:46.421Z,13.36
2019-05-30T02:29:17.227Z,13.40
2019-05-30T02:31:47.986Z,13.41
2019-05-30T02:34:18.768Z,13.38
2019-05-30T02:36:50.527Z,13.39
2019-05-30T02:39:21.287Z,13.27
2019-05-30T02:41:52.081Z,13.38
2019-05-30T02:44:22.864Z,13.34
2019-05-30T02:46:55.298Z,13.30
2019-05-30T02:49:26.424Z,13.31
2019-05-30T02:51:57.744Z,13.37
2019-05-30T02:54:28.538Z,13.38
2019-05-30T02:56:59.323Z,13.40
2019-05-30T02:59:31.063Z,13.48
2019-05-30T03:02:05.303Z,13.41
2019-05-30T03:04:35.339Z,13.44
2019-05-30T03:07:08.336Z,13.51
2019-05-30T03:09:38.878Z,13.44
2019-05-30T03:12:11.459Z,13.37
2019-05-30T03:14:43.348Z,13.42
2019-05-30T03:17:14.818Z,13.39
2019-05-30T03:19:45.562Z,13.44
2019-05-30T03:22:16.391Z,13.37
2019-05-30T03:24:47.164Z,13.27
2019-05-30T03:27:18.010Z,13.41
2019-05-30T03:29:48.780Z,13.44
2019-05-30T03:34:57.873Z,13.44
2019-05-30T03:37:30.491Z,13.34
2019-05-30T03:40:08.057Z,13.44
2019-05-30T03:42:38.746Z,13.44
2019-05-30T03:45:20.053Z,13.32
2019-05-30T03:47:53.172Z,13.31
2019-05-30T03:50:25.748Z,13.17
2019-05-30T03:52:56.763Z,13.26
2019-05-30T03:55:27.679Z,13.28
2019-05-30T03:58:14.443Z,13.37
2019-05-30T04:00:53.424Z,13.40
2019-05-30T04:03:56.691Z,13.38
2019-05-30T04:06:30.977Z,13.40
2019-05-30T04:09:09.685Z,13.54
2019-05-30T04:11:53.901Z,13.33
2019-05-30T04:14:26.989Z,13.43
2019-05-30T04:16:57.657Z,13.45
2019-05-30T04:19:28.366Z,13.38
2019-05-30T04:22:00.107Z,13.36
2019-05-30T04:24:30.780Z,13.19
2019-05-30T04:27:01.371Z,13.26
2019-05-30T04:29:33.138Z,13.18
2019-05-30T04:32:05.956Z,13.27
2019-05-30T04:34:36.566Z,13.32
2019-05-30T04:37:08.245Z,13.33
2019-05-30T04:39:39.092Z,13.33
2019-05-30T04:42:11.191Z,13.35
2019-05-30T04:44:41.967Z,13.43
2019-05-30T04:47:14.199Z,13.47
2019-05-30T04:49:45.886Z,13.45
2019-05-30T04:52:21.081Z,13.56
2019-05-30T04:54:48.785Z,13.43
2019-05-30T04:57:25.182Z,13.53
2019-05-30T04:59:56.178Z,13.62
2019-05-30T05:02:26.794Z,13.67
2019-05-30T05:04:57.478Z,13.71
2019-05-30T05:07:28.184Z,13.68
2019-05-30T05:09:58.889Z,13.80
2019-05-30T05:12:29.559Z,13.86
2019-05-30T05:15:01.260Z,13.88
2019-05-30T05:17:32.102Z,13.97
2019-05-30T05:20:04.248Z,13.97
2019-05-30T05:22:38.128Z,13.98
2019-05-30T05:25:09.165Z,14.09
2019-05-30T05:27:39.757Z,14.06
2019-05-30T05:30:13.881Z,14.12
2019-05-30T05:32:44.687Z,14.21
2019-05-30T05:35:16.706Z,14.13
2019-05-30T05:37:47.422Z,14.24
2019-05-30T05:40:18.505Z,14.25
2019-05-30T05:42:49.191Z,14.25
2019-05-30T05:45:22.658Z,14.22
2019-05-30T05:47:54.593Z,14.32
2019-05-30T05:50:26.387Z,14.34
2019-05-30T05:52:59.640Z,14.30
2019-05-30T05:55:30.514Z,14.39
2019-05-30T05:58:04.241Z,14.41
2019-05-30T06:00:37.668Z,14.33
2019-05-30T06:03:08.469Z,14.40
2019-05-30T06:05:52.580Z,14.44
2019-05-30T06:08:17.346Z,14.51
2019-05-30T06:10:50.293Z,14.43
2019-05-30T06:13:24.867Z,14.44
2019-05-30T06:15:55.540Z,14.46
2019-05-30T06:18:26.389Z,14.53
2019-05-30T06:20:57.179Z,14.54
2019-05-30T06:23:28.784Z,14.62
2019-05-30T06:25:59.498Z,14.64
2019-05-30T06:28:30.383Z,14.59
2019-05-30T06:31:02.107Z,14.48
2019-05-30T06:33:32.777Z,14.52
2019-05-30T06:36:09.262Z,14.51
2019-05-30T06:38:39.990Z,14.48
2019-05-30T06:41:10.699Z,14.46
2019-05-30T06:43:43.377Z,14.39
2019-05-30T06:46:16.109Z,14.50
2019-05-30T06:48:46.720Z,14.41
2019-05-30T06:51:17.387Z,14.43
2019-05-30T06:53:50.106Z,14.32
2019-05-30T06:56:23.282Z,14.26
2019-05-30T06:58:56.001Z,14.26
2019-05-30T07:01:27.890Z,14.20
2019-05-30T07:03:58.831Z,14.28
2019-05-30T07:06:34.359Z,14.24
2019-05-30T07:09:08.271Z,14.31
2019-05-30T07:11:43.077Z,14.25
2019-05-30T07:14:13.764Z,14.32
2019-05-30T07:16:46.448Z,14.21
2019-05-30T07:19:17.044Z,14.18
2019-05-30T07:21:47.753Z,14.19
2019-05-30T07:24:19.430Z,14.14
2019-05-30T07:26:50.063Z,14.11
2019-05-30T07:29:20.807Z,14.02
2019-05-30T07:31:51.421Z,14.11
2019-05-30T07:34:22.060Z,13.95
2019-05-30T07:36:53.755Z,13.97
2019-05-30T07:39:35.247Z,13.93
2019-05-30T07:42:06.508Z,13.88
2019-05-30T07:44:37.576Z,13.82
2019-05-30T07:47:08.181Z,13.79
2019-05-30T07:49:39.882Z,13.86
2019-05-30T07:52:11.634Z,13.89
2019-05-30T07:54:42.372Z,13.94
2019-05-30T07:57:14.029Z,13.93
2019-05-30T07:59:44.647Z,13.89
2019-05-30T08:02:15.269Z,13.87
2019-05-30T08:04:47.006Z,13.91
2019-05-30T08:07:17.880Z,13.99
2019-05-30T08:09:48.618Z,13.98
2019-05-30T08:12:19.306Z,13.98
2019-05-30T08:14:52.007Z,14.08
2019-05-30T08:17:22.830Z,14.04
2019-05-30T08:19:53.596Z,14.18
2019-05-30T08:22:24.344Z,14.22
2019-05-30T08:24:55.133Z,14.22
2019-05-30T08:27:25.859Z,14.27
2019-05-30T08:29:56.645Z,14.34
2019-05-30T08:32:28.362Z,14.36
2019-05-30T08:34:59.189Z,14.41
2019-05-30T08:37:32.009Z,14.46
2019-05-30T08:40:02.492Z,14.51
2019-05-30T08:42:33.277Z,14.60
2019-05-30T08:45:10.149Z,14.60
2019-05-30T08:47:42.917Z,14.63
2019-05-30T08:50:14.661Z,14.71
2019-05-30T08:52:45.375Z,14.73
2019-05-30T08:55:18.094Z,14.73
2019-05-30T08:57:49.267Z,14.87
2019-05-30T09:00:20.798Z,14.97
2019-05-30T09:02:51.507Z,15.11
2019-05-30T09:05:24.188Z,15.07
2019-05-30T09:07:54.946Z,15.11
2019-05-30T09:10:27.671Z,15.19
2019-05-30T09:12:59.396Z,15.23
2019-05-30T09:15:31.307Z,15.17
2019-05-30T09:18:07.375Z,15.25
2019-05-30T09:20:39.810Z,15.22
2019-05-30T09:23:11.919Z,15.35
2019-05-30T09:25:46.470Z,15.35
2019-05-30T09:28:15.965Z,15.43
2019-05-30T09:30:48.507Z,15.51
2019-05-30T09:33:19.276Z,15.53
2019-05-30T09:35:49.959Z,15.59
2019-05-30T09:38:21.552Z,15.59
2019-05-30T09:40:53.282Z,15.62
2019-05-30T09:43:23.978Z,15.70
2019-05-30T09:45:55.819Z,15.66
2019-05-30T09:48:26.532Z,15.68
2019-05-30T09:50:57.250Z,15.67
2019-05-30T09:53:27.951Z,15.72
2019-05-30T09:56:00.685Z,15.72
2019-05-30T09:58:31.394Z,15.71
2019-05-30T10:01:03.083Z,15.74
2019-05-30T10:03:33.832Z,15.78
2019-05-30T10:06:05.166Z,15.80
2019-05-30T10:08:37.453Z,15.83
2019-05-30T10:11:08.222Z,15.86
2019-05-30T10:13:39.960Z,15.92
2019-05-30T10:16:10.777Z,15.92
2019-05-30T10:18:41.575Z,16.02
2019-05-30T10:21:12.269Z,16.11
2019-05-30T10:23:43.304Z,16.12
2019-05-30T10:26:14.141Z,16.16
2019-05-30T10:28:46.093Z,16.19
2019-05-30T10:31:17.422Z,16.22
2019-05-30T10:33:49.378Z,16.16
2019-05-30T10:36:20.599Z,16.17
2019-05-30T10:38:52.193Z,16.12
2019-05-30T10:41:24.137Z,16.12
2019-05-30T10:43:55.824Z,16.15
2019-05-30T10:46:26.662Z,16.19
2019-05-30T10:48:57.840Z,16.16
2019-05-30T10:51:28.747Z,16.23
2019-05-30T10:53:59.588Z,16.26
2019-05-30T10:56:30.619Z,16.27
2019-05-30T10:59:02.238Z,16.26
2019-05-30T11:01:38.599Z,16.30
2019-05-30T11:04:11.304Z,16.33
2019-05-30T11:07:12.103Z,16.35
2019-05-30T11:09:48.399Z,16.38
2019-05-30T11:12:19.327Z,16.46
2019-05-30T11:14:51.414Z,16.50
2019-05-30T11:17:22.212Z,16.55
2019-05-30T11:19:54.063Z,16.52
2019-05-30T11:22:29.239Z,16.59
2019-05-30T11:25:01.919Z,16.62
2019-05-30T11:27:33.132Z,16.65
2019-05-30T11:30:05.885Z,16.71
2019-05-30T11:32:36.556Z,16.71
2019-05-30T11:35:10.412Z,16.76
2019-05-30T11:37:41.124Z,16.75
2019-05-30T11:40:12.057Z,16.78
2019-05-30T11:42:49.306Z,16.77
2019-05-30T11:45:20.136Z,16.78
2019-05-30T11:47:52.087Z,16.78
2019-05-30T11:50:30.213Z,16.79
2019-05-30T11:53:01.419Z,16.75
2019-05-30T11:55:34.811Z,16.79
2019-05-30T11:58:05.606Z,16.78
2019-05-30T12:00:36.293Z,16.75
2019-05-30T12:03:10.717Z,16.71
2019-05-30T12:05:44.154Z,16.78
2019-05-30T12:08:15.003Z,16.80
2019-05-30T12:10:45.777Z,16.80
2019-05-30T12:13:16.493Z,16.84
2019-05-30T12:15:47.273Z,16.85
2019-05-30T12:18:19.108Z,16.87
2019-05-30T12:20:49.823Z,16.89
2019-05-30T12:23:21.075Z,16.92
2019-05-30T12:25:52.043Z,16.87
2019-05-30T12:28:22.908Z,16.87
2019-05-30T12:30:59.064Z,16.92
2019-05-30T12:33:26.207Z,16.94
2019-05-30T12:35:57.007Z,16.94
2019-05-30T12:38:27.841Z,16.99
2019-05-30T12:40:58.782Z,16.93
2019-05-30T12:43:29.974Z,16.91
2019-05-30T12:46:01.894Z,16.96
2019-05-30T12:48:33.930Z,16.94
2019-05-30T12:51:05.569Z,16.92
2019-05-30T12:53:37.559Z,16.96
2019-05-30T12:56:09.405Z,16.95
2019-05-30T12:58:40.841Z,16.99
2019-05-30T13:01:11.704Z,16.98
2019-05-30T13:03:42.434Z,16.92
2019-05-30T13:06:17.909Z,16.92
2019-05-30T13:08:48.720Z,16.94
2019-05-30T13:11:20.119Z,16.93
2019-05-30T13:13:50.872Z,16.86
2019-05-30T13:16:22.454Z,16.94
2019-05-30T13:18:54.174Z,16.89
2019-05-30T13:21:24.969Z,16.87
2019-05-30T13:23:55.714Z,16.92
2019-05-30T13:26:26.525Z,16.88
2019-05-30T13:28:57.983Z,16.87
2019-05-30T13:31:28.854Z,17.00
2019-05-30T13:34:01.118Z,17.03
2019-05-30T13:36:32.040Z,17.04
2019-05-30T13:39:07.511Z,17.05
2019-05-30T13:41:38.691Z,17.02
2019-05-30T13:44:10.005Z,17.06
2019-05-30T13:46:46.928Z,17.07
2019-05-30T13:49:22.478Z,17.08
2019-05-30T13:51:53.947Z,17.09
2019-05-30T13:54:25.896Z,17.08
2019-05-30T13:56:56.642Z,17.09
2019-05-30T13:59:27.328Z,17.14
2019-05-30T14:01:59.853Z,17.22
2019-05-30T14:04:32.575Z,17.30
2019-05-30T14:07:04.202Z,17.28
2019-05-30T14:09:36.172Z,17.33
2019-05-30T14:12:08.725Z,17.42
2019-05-30T14:14:39.880Z,17.51
2019-05-30T14:17:14.990Z,17.55
2019-05-30T14:19:46.372Z,17.62
2019-05-30T14:22:17.658Z,17.66
2019-05-30T14:24:48.370Z,17.76
2019-05-30T14:27:22.168Z,17.80
2019-05-30T14:29:55.002Z,17.80
2019-05-30T14:32:25.671Z,17.85
2019-05-30T14:34:56.455Z,17.83
2019-05-30T14:37:27.064Z,17.88
2019-05-30T14:39:57.895Z,17.96
2019-05-30T14:42:28.917Z,18.02
2019-05-30T14:44:59.820Z,18.09
2019-05-30T14:47:30.597Z,18.13
2019-05-30T14:50:01.483Z,18.19
2019-05-30T14:52:32.282Z,18.22
2019-05-30T14:55:03.243Z,18.23
2019-05-30T14:57:33.991Z,18.24
2019-05-30T15:00:07.376Z,18.24
2019-05-30T15:02:38.162Z,18.25
2019-05-30T15:05:09.594Z,18.26
2019-05-30T15:07:42.059Z,18.26
2019-05-30T15:10:17.010Z,18.25
2019-05-30T15:12:48.124Z,18.26
2019-05-30T15:15:30.108Z,18.25
2019-05-30T15:18:01.819Z,18.28
2019-05-30T15:20:32.497Z,18.32
2019-05-30T15:23:11.680Z,18.36
2019-05-30T15:25:43.893Z,18.41
2019-05-30T15:28:14.564Z,18.47
2019-05-30T15:30:45.262Z,18.45
2019-05-30T15:33:16.635Z,18.54
2019-05-30T15:35:47.421Z,18.58
2019-05-30T15:38:21.914Z,18.59
2019-05-30T15:40:52.598Z,18.65
2019-05-30T15:43:23.402Z,18.63
2019-05-30T15:45:54.045Z,18.63
2019-05-30T15:48:24.687Z,18.66
2019-05-30T15:50:55.433Z,18.68
2019-05-30T15:53:26.110Z,18.62
2019-05-30T15:55:56.889Z,18.69
2019-05-30T15:58:28.649Z,18.65
2019-05-30T16:01:00.546Z,18.66
2019-05-30T16:03:31.312Z,18.71
2019-05-30T16:06:02.178Z,18.71
2019-05-30T16:08:32.866Z,18.75
2019-05-30T16:11:05.672Z,18.77
2019-05-30T16:13:42.854Z,18.81
2019-05-30T16:16:13.630Z,18.89
2019-05-30T16:18:45.264Z,18.95
2019-05-30T16:21:17.150Z,18.99
2019-05-30T16:23:49.452Z,19.04
2019-05-30T16:26:20.143Z,19.07
2019-05-30T16:28:51.959Z,19.07
2019-05-30T16:31:26.057Z,19.05
2019-05-30T16:33:57.684Z,18.99
2019-05-30T16:36:29.503Z,18.94
2019-05-30T16:39:00.128Z,18.92
2019-05-30T16:41:31.355Z,18.88
2019-05-30T16:44:03.162Z,18.80
2019-05-30T16:46:33.990Z,18.82
2019-05-30T16:49:05.703Z,18.87
2019-05-30T16:51:36.433Z,18.87
2019-05-30T16:54:07.114Z,18.93
2019-05-30T16:56:37.937Z,19.00
2019-05-30T16:59:08.766Z,19.02
2019-05-30T17:01:39.534Z,19.05
2019-05-30T17:04:10.235Z,19.14
2019-05-30T17:06:40.961Z,19.17
2019-05-30T17:09:11.780Z,19.17
2019-05-30T17:11:42.398Z,19.28
2019-05-30T17:14:13.400Z,19.28
2019-05-30T17:16:44.272Z,19.33
2019-05-30T17:19:16.405Z,19.36
2019-05-30T17:21:47.388Z,19.35
2019-05-30T17:24:25.217Z,19.35
2019-05-30T17:26:56.285Z,19.43
2019-05-30T17:29:30.593Z,19.43
2019-05-30T17:32:01.785Z,19.39
2019-05-30T17:34:36.978Z,19.38
2019-05-30T17:37:08.719Z,19.37
2019-05-30T17:39:42.310Z,19.36
2019-05-30T17:42:15.897Z,19.38
2019-05-30T17:44:47.984Z,19.33
2019-05-30T17:47:21.298Z,19.33
2019-05-30T17:49:52.818Z,19.27
2019-05-30T17:52:25.790Z,19.30
2019-05-30T17:54:57.489Z,19.21
2019-05-30T17:57:30.228Z,19.20
2019-05-30T18:00:04.239Z,19.25
2019-05-30T18:02:38.347Z,19.15
2019-05-30T18:05:09.804Z,19.15
2019-05-30T18:07:40.969Z,19.13
2019-05-30T18:10:15.033Z,19.19
2019-05-30T18:12:47.137Z,19.11
2019-05-30T18:15:18.173Z,19.07
2019-05-30T18:17:49.442Z,19.11
2019-05-30T18:20:23.141Z,19.08
2019-05-30T18:22:54.094Z,19.08
2019-05-30T18:25:25.623Z,19.03
2019-05-30T18:27:57.518Z,19.04
2019-05-30T18:30:40.323Z,19.03
2019-05-30T18:33:12.639Z,19.00
2019-05-30T18:35:44.270Z,18.95
2019-05-30T18:38:17.059Z,18.92
2019-05-30T18:40:48.695Z,18.84
2019-05-30T18:43:20.592Z,18.85
2019-05-30T18:45:52.122Z,18.80
2019-05-30T18:48:23.327Z,18.74
2019-05-30T18:50:54.444Z,18.73
2019-05-30T18:53:28.244Z,18.72
2019-05-30T18:56:03.897Z,18.68
2019-05-30T18:58:37.545Z,18.67
2019-05-30T19:04:22.752Z,18.68
2019-05-30T19:06:53.798Z,18.78
2019-05-30T19:09:25.424Z,18.69
2019-05-30T19:11:57.163Z,18.70
2019-05-30T19:14:32.096Z,18.68
2019-05-30T19:17:03.433Z,18.76
2019-05-30T19:19:35.868Z,18.72
2019-05-30T19:22:07.322Z,18.77
2019-05-30T19:24:40.860Z,18.81
2019-05-30T19:27:14.266Z,18.80
2019-05-30T19:29:45.581Z,18.87
2019-05-30T19:32:16.793Z,18.82
2019-05-30T19:34:49.531Z,18.84
2019-05-30T19:37:22.144Z,18.87
2019-05-30T19:39:53.250Z,18.84
2019-05-30T19:42:25.201Z,18.85
2019-05-30T19:45:01.218Z,18.91
2019-05-30T19:47:34.634Z,18.88
2019-05-30T19:50:07.660Z,18.87
2019-05-30T19:52:39.638Z,18.88
2019-05-30T19:55:11.551Z,18.83
2019-05-30T19:57:42.757Z,18.83
2019-05-30T20:00:14.986Z,18.80
2019-05-30T20:02:47.308Z,18.86
2019-05-30T20:05:22.120Z,18.87
2019-05-30T20:07:54.038Z,18.81
2019-05-30T20:10:27.591Z,18.76
2019-05-30T20:12:58.717Z,18.76
2019-05-30T20:15:31.167Z,18.80
2019-05-30T20:18:02.678Z,18.69
2019-05-30T20:20:52.580Z,18.71
2019-05-30T20:23:06.944Z,18.73
2019-05-30T20:25:41.884Z,18.66
2019-05-30T20:28:12.049Z,18.65
2019-05-30T20:30:45.452Z,18.66
2019-05-30T20:33:19.794Z,18.61
2019-05-30T20:35:50.897Z,18.57
2019-05-30T20:38:22.159Z,18.57
2019-05-30T20:40:54.971Z,18.55
2019-05-30T20:43:26.988Z,18.52
2019-05-30T20:45:57.779Z,18.46
2019-05-30T20:48:31.130Z,18.40
2019-05-30T20:51:02.935Z,18.41
2019-05-30T20:53:35.225Z,18.36
2019-05-30T20:56:10.015Z,18.43
2019-05-30T20:58:41.815Z,18.35
2019-05-30T21:01:13.813Z,18.32
2019-05-30T21:03:45.839Z,18.29
2019-05-30T21:06:18.373Z,18.25
2019-05-30T21:08:52.091Z,18.21
2019-05-30T21:11:24.970Z,18.11
2019-05-30T21:13:55.739Z,18.08
2019-05-30T21:16:30.601Z,18.10
2019-05-30T21:19:07.663Z,18.07
2019-05-30T21:21:42.535Z,18.10
2019-05-30T21:24:21.389Z,18.04
2019-05-30T21:26:54.417Z,18.07
2019-05-30T21:29:31.539Z,18.04
2019-05-30T21:32:05.966Z,17.94
2019-05-30T21:34:37.611Z,18.01
2019-05-30T21:37:09.491Z,17.89
2019-05-30T21:39:40.242Z,17.90
2019-05-30T21:42:12.026Z,17.94
2019-05-30T21:44:42.877Z,17.91
2019-05-30T21:47:13.793Z,17.93
2019-05-30T21:49:44.926Z,17.99
2019-05-30T21:52:16.012Z,18.02
2019-05-30T21:54:50.098Z,17.96
2019-05-30T21:57:22.103Z,17.93
2019-05-30T21:59:53.015Z,17.94
2019-05-30T22:02:29.736Z,17.90
2019-05-30T22:05:02.743Z,17.89
2019-05-30T22:07:34.980Z,17.96
2019-05-30T22:10:05.956Z,17.95
2019-05-30T22:12:36.675Z,17.89
2019-05-30T22:15:11.185Z,17.87
2019-05-30T22:17:41.889Z,17.86
2019-05-30T22:20:16.444Z,17.79
2019-05-30T22:22:48.120Z,17.76
2019-05-30T22:25:18.988Z,17.75
2019-05-30T22:27:50.540Z,17.77
2019-05-30T22:30:22.337Z,17.81
2019-05-30T22:32:52.980Z,17.75
2019-05-30T22:35:23.747Z,17.75
2019-05-30T22:37:56.437Z,17.77
2019-05-30T22:40:27.160Z,17.74
2019-05-30T22:42:57.927Z,17.75
2019-05-30T22:45:30.658Z,17.74
2019-05-30T22:48:01.345Z,17.69
2019-05-30T22:50:32.126Z,17.72
2019-05-30T22:53:03.855Z,17.61
2019-05-30T22:55:34.599Z,17.57
2019-05-30T22:58:05.255Z,17.61
2019-05-30T23:00:40.989Z,17.59
2019-05-30T23:03:15.786Z,17.54
2019-05-30T23:05:47.263Z,17.55
2019-05-30T23:08:19.204Z,17.53
2019-05-30T23:10:50.041Z,17.51
2019-05-30T23:13:23.030Z,17.53
2019-05-30T23:15:59.039Z,17.53
2019-05-30T23:18:29.651Z,17.52
2019-05-30T23:21:00.453Z,17.55
2019-05-30T23:23:31.283Z,17.59
2019-05-30T23:26:03.996Z,17.58
2019-05-30T23:28:41.569Z,17.61
2019-05-30T23:31:14.424Z,17.60
2019-05-30T23:33:52.302Z,17.66
2019-05-30T23:36:24.644Z,17.68
2019-05-30T23:38:55.382Z,17.65
2019-05-30T23:41:37.380Z,17.63
2019-05-30T23:44:11.903Z,17.72
2019-05-30T23:46:55.450Z,17.75
2019-05-30T23:49:29.252Z,17.75
2019-05-30T23:52:00.332Z,17.78
2019-05-30T23:54:38.091Z,17.76
2019-05-30T23:57:08.820Z,17.74
2019-05-30T23:59:39.536Z,17.75
